sensor_id;sensor_type;location;lat;lon;timestamp;pressure;altitude;pressure_sealevel;temperature;humidity
39613;BME280;25303;48.896;13.342;2023-05-23T00:00:58;92491.25;;;18.37;47.59
39613;BME280;25303;48.896;13.342;2023-05-23T00:03:41;92489.66;;;18.36;48.24
39613;BME280;25303;48.896;13.342;2023-05-23T00:06:23;92493.09;;;18.36;47.45
39613;BME280;25303;48.896;13.342;2023-05-23T00:09:07;92488.59;;;18.44;47.48
39613;BME280;25303;48.896;13.342;2023-05-23T00:11:50;92493.81;;;18.44;47.28
39613;BME280;25303;48.896;13.342;2023-05-23T00:14:33;92488.59;;;18.44;47.44
39613;BME280;25303;48.896;13.342;2023-05-23T00:17:17;92495.19;;;18.46;47.36
39613;BME280;25303;48.896;13.342;2023-05-23T00:20:02;92495.75;;;18.48;47.64
39613;BME280;25303;48.896;13.342;2023-05-23T00:22:44;92496.84;;;18.41;47.70
39613;BME280;25303;48.896;13.342;2023-05-23T00:25:29;92488.88;;;18.35;47.85
39613;BME280;25303;48.896;13.342;2023-05-23T00:28:15;92495.28;;;18.33;48.00
39613;BME280;25303;48.896;13.342;2023-05-23T00:30:58;92501.94;;;18.29;47.63
39613;BME280;25303;48.896;13.342;2023-05-23T00:33:42;92495.56;;;18.25;47.69
39613;BME280;25303;48.896;13.342;2023-05-23T00:36:25;92503.56;;;18.23;48.37
39613;BME280;25303;48.896;13.342;2023-05-23T00:39:08;92509.00;;;18.21;48.24
39613;BME280;25303;48.896;13.342;2023-05-23T00:41:57;92514.44;;;18.20;48.60
39613;BME280;25303;48.896;13.342;2023-05-23T00:44:40;92514.06;;;18.16;48.67
39613;BME280;25303;48.896;13.342;2023-05-23T00:47:23;92519.53;;;18.08;48.66
39613;BME280;25303;48.896;13.342;2023-05-23T00:50:10;92513.56;;;18.01;49.06
39613;BME280;25303;48.896;13.342;2023-05-23T00:52:53;92511.78;;;17.95;49.19
39613;BME280;25303;48.896;13.342;2023-05-23T00:55:36;92512.78;;;17.94;49.14
39613;BME280;25303;48.896;13.342;2023-05-23T00:58:20;92516.97;;;18.01;49.16
39613;BME280;25303;48.896;13.342;2023-05-23T01:01:03;92512.56;;;18.02;49.29
39613;BME280;25303;48.896;13.342;2023-05-23T01:03:46;92513.56;;;18.01;49.61
39613;BME280;25303;48.896;13.342;2023-05-23T01:06:32;92516.56;;;17.98;49.54
39613;BME280;25303;48.896;13.342;2023-05-23T01:09:15;92506.56;;;17.95;49.50
39613;BME280;25303;48.896;13.342;2023-05-23T01:12:09;92509.00;;;17.89;49.92
39613;BME280;25303;48.896;13.342;2023-05-23T01:14:59;92509.19;;;17.88;49.71
39613;BME280;25303;48.896;13.342;2023-05-23T01:17:50;92503.41;;;17.86;49.82
39613;BME280;25303;48.896;13.342;2023-05-23T01:20:41;92505.44;;;17.84;49.95
39613;BME280;25303;48.896;13.342;2023-05-23T01:27:00;92513.66;;;17.81;50.07
39613;BME280;25303;48.896;13.342;2023-05-23T01:29:51;92511.47;;;17.77;49.89
39613;BME280;25303;48.896;13.342;2023-05-23T01:32:36;92508.25;;;17.75;49.80
39613;BME280;25303;48.896;13.342;2023-05-23T01:35:23;92508.47;;;17.74;50.06
39613;BME280;25303;48.896;13.342;2023-05-23T01:38:08;92513.69;;;17.74;50.35
39613;BME280;25303;48.896;13.342;2023-05-23T01:40:52;92507.06;;;17.71;50.18
39613;BME280;25303;48.896;13.342;2023-05-23T01:43:36;92508.53;;;17.67;50.14
39613;BME280;25303;48.896;13.342;2023-05-23T01:46:20;92501.91;;;17.65;50.50
39613;BME280;25303;48.896;13.342;2023-05-23T01:49:09;92511.53;;;17.64;50.50
39613;BME280;25303;48.896;13.342;2023-05-23T01:51:53;92515.94;;;17.64;50.39
39613;BME280;25303;48.896;13.342;2023-05-23T01:54:37;92518.53;;;17.64;50.60
39613;BME280;25303;48.896;13.342;2023-05-23T01:57:25;92515.38;;;17.61;50.55
39613;BME280;25303;48.896;13.342;2023-05-23T02:00:11;92515.56;;;17.60;50.49
39613;BME280;25303;48.896;13.342;2023-05-23T02:03:01;92518.16;;;17.60;50.46
39613;BME280;25303;48.896;13.342;2023-05-23T02:05:46;92516.38;;;17.60;50.78
39613;BME280;25303;48.896;13.342;2023-05-23T02:08:29;92514.97;;;17.58;50.83
39613;BME280;25303;48.896;13.342;2023-05-23T02:11:12;92513.34;;;17.57;50.46
39613;BME280;25303;48.896;13.342;2023-05-23T02:13:55;92510.97;;;17.55;50.78
39613;BME280;25303;48.896;13.342;2023-05-23T02:16:38;92519.56;;;17.56;51.00
39613;BME280;25303;48.896;13.342;2023-05-23T02:19:23;92511.75;;;17.56;50.96
39613;BME280;25303;48.896;13.342;2023-05-23T02:22:07;92515.38;;;17.55;50.65
39613;BME280;25303;48.896;13.342;2023-05-23T02:24:50;92517.19;;;17.54;50.97
39613;BME280;25303;48.896;13.342;2023-05-23T02:27:33;92519.56;;;17.56;50.97
39613;BME280;25303;48.896;13.342;2023-05-23T02:30:16;92517.78;;;17.56;50.96
39613;BME280;25303;48.896;13.342;2023-05-23T02:33:03;92520.38;;;17.56;50.96
39613;BME280;25303;48.896;13.342;2023-05-23T02:35:48;92511.97;;;17.54;50.97
39613;BME280;25303;48.896;13.342;2023-05-23T02:38:32;92516.59;;;17.52;51.14
39613;BME280;25303;48.896;13.342;2023-05-23T02:41:14;92512.59;;;17.50;51.34
39613;BME280;25303;48.896;13.342;2023-05-23T02:43:58;92508.41;;;17.49;51.19
39613;BME280;25303;48.896;13.342;2023-05-23T02:46:41;92499.78;;;17.48;51.54
39613;BME280;25303;48.896;13.342;2023-05-23T02:49:24;92500.00;;;17.46;51.67
39613;BME280;25303;48.896;13.342;2023-05-23T02:52:09;92501.00;;;17.45;51.67
39613;BME280;25303;48.896;13.342;2023-05-23T02:54:51;92500.41;;;17.43;51.59
39613;BME280;25303;48.896;13.342;2023-05-23T02:57:35;92498.03;;;17.42;51.76
39613;BME280;25303;48.896;13.342;2023-05-23T03:00:18;92503.41;;;17.40;51.89
39613;BME280;25303;48.896;13.342;2023-05-23T03:03:06;92505.44;;;17.38;51.72
39613;BME280;25303;48.896;13.342;2023-05-23T03:05:49;92494.66;;;17.35;51.98
39613;BME280;25303;48.896;13.342;2023-05-23T03:08:34;92493.25;;;17.32;52.01
39613;BME280;25303;48.896;13.342;2023-05-23T03:11:17;92492.66;;;17.30;51.74
39613;BME280;25303;48.896;13.342;2023-05-23T03:14:00;92486.88;;;17.28;51.95
39613;BME280;25303;48.896;13.342;2023-05-23T03:16:43;92495.69;;;17.27;52.16
39613;BME280;25303;48.896;13.342;2023-05-23T03:19:27;92489.69;;;17.26;52.00
39613;BME280;25303;48.896;13.342;2023-05-23T03:22:10;92489.69;;;17.26;52.30
39613;BME280;25303;48.896;13.342;2023-05-23T03:24:55;92487.09;;;17.26;52.33
39613;BME280;25303;48.896;13.342;2023-05-23T03:27:38;92486.09;;;17.27;52.17
39613;BME280;25303;48.896;13.342;2023-05-23T03:30:21;92486.88;;;17.28;52.30
39613;BME280;25303;48.896;13.342;2023-05-23T03:33:04;92488.47;;;17.29;52.27
39613;BME280;25303;48.896;13.342;2023-05-23T03:35:48;92486.66;;;17.29;52.30
39613;BME280;25303;48.896;13.342;2023-05-23T03:38:31;92491.66;;;17.31;52.42
39613;BME280;25303;48.896;13.342;2023-05-23T03:41:15;92485.47;;;17.32;52.50
39613;BME280;25303;48.896;13.342;2023-05-23T03:43:59;92494.47;;;17.36;52.52
39613;BME280;25303;48.896;13.342;2023-05-23T03:46:42;92496.63;;;17.39;52.44
39613;BME280;25303;48.896;13.342;2023-05-23T03:49:26;92506.22;;;17.45;52.59
39613;BME280;25303;48.896;13.342;2023-05-23T03:52:10;92503.19;;;17.49;52.37
39613;BME280;25303;48.896;13.342;2023-05-23T03:54:53;92501.78;;;17.53;52.01
39613;BME280;25303;48.896;13.342;2023-05-23T03:57:38;92502.16;;;17.56;52.09
39613;BME280;25303;48.896;13.342;2023-05-23T04:00:21;92504.34;;;17.59;51.97
39613;BME280;25303;48.896;13.342;2023-05-23T04:03:05;92511.72;;;17.62;51.76
39613;BME280;25303;48.896;13.342;2023-05-23T04:05:49;92502.72;;;17.65;52.12
39613;BME280;25303;48.896;13.342;2023-05-23T04:08:32;92504.09;;;17.68;52.10
39613;BME280;25303;48.896;13.342;2023-05-23T04:11:16;92504.09;;;17.68;51.91
39613;BME280;25303;48.896;13.342;2023-05-23T04:14:01;92504.47;;;17.71;52.20
39613;BME280;25303;48.896;13.342;2023-05-23T04:16:45;92508.25;;;17.75;52.23
39613;BME280;25303;48.896;13.342;2023-05-23T04:19:29;92506.03;;;17.79;52.08
39613;BME280;25303;48.896;13.342;2023-05-23T04:22:12;92506.22;;;17.84;51.58
39613;BME280;25303;48.896;13.342;2023-05-23T04:24:55;92503.78;;;17.89;51.91
39613;BME280;25303;48.896;13.342;2023-05-23T04:27:42;92499.31;;;17.97;51.41
39613;BME280;25303;48.896;13.342;2023-05-23T04:30:27;92491.53;;;18.03;51.46
39613;BME280;25303;48.896;13.342;2023-05-23T04:33:11;92495.50;;;18.06;51.15
39613;BME280;25303;48.896;13.342;2023-05-23T04:35:54;92505.28;;;18.11;51.36
39613;BME280;25303;48.896;13.342;2023-05-23T04:38:38;92501.44;;;18.13;51.71
39613;BME280;25303;48.896;13.342;2023-05-23T04:41:23;92499.44;;;18.15;52.20
39613;BME280;25303;48.896;13.342;2023-05-23T04:44:24;92494.81;;;18.17;51.72
39613;BME280;25303;48.896;13.342;2023-05-23T04:47:25;92500.38;;;18.21;51.90
39613;BME280;25303;48.896;13.342;2023-05-23T04:50:17;92506.00;;;18.25;51.51
39613;BME280;25303;48.896;13.342;2023-05-23T04:53:02;92506.59;;;18.27;51.62
39613;BME280;25303;48.896;13.342;2023-05-23T04:55:45;92509.75;;;18.29;51.83
39613;BME280;25303;48.896;13.342;2023-05-23T04:58:31;92500.72;;;18.31;51.47
39613;BME280;25303;48.896;13.342;2023-05-23T05:01:18;92504.13;;;18.32;51.53
39613;BME280;25303;48.896;13.342;2023-05-23T05:04:06;92497.13;;;18.32;51.99
39613;BME280;25303;48.896;13.342;2023-05-23T05:06:49;92503.91;;;18.33;52.09
39613;BME280;25303;48.896;13.342;2023-05-23T05:09:33;92506.31;;;18.35;52.65
39613;BME280;25303;48.896;13.342;2023-05-23T05:12:16;92504.50;;;18.35;52.42
39613;BME280;25303;48.896;13.342;2023-05-23T05:14:59;92512.09;;;18.37;52.25
39613;BME280;25303;48.896;13.342;2023-05-23T05:17:43;92515.06;;;18.41;52.67
39613;BME280;25303;48.896;13.342;2023-05-23T05:20:32;92512.88;;;18.44;53.05
39613;BME280;25303;48.896;13.342;2023-05-23T05:23:16;92509.81;;;18.47;52.75
39613;BME280;25303;48.896;13.342;2023-05-23T05:26:00;92517.00;;;18.52;53.02
39613;BME280;25303;48.896;13.342;2023-05-23T05:28:44;92516.00;;;18.53;53.19
39613;BME280;25303;48.896;13.342;2023-05-23T05:31:27;92522.59;;;18.56;52.67
39613;BME280;25303;48.896;13.342;2023-05-23T05:34:10;92520.34;;;18.59;52.84
39613;BME280;25303;48.896;13.342;2023-05-23T05:36:55;92522.53;;;18.62;53.21
39613;BME280;25303;48.896;13.342;2023-05-23T05:39:40;92515.28;;;18.64;52.65
39613;BME280;25303;48.896;13.342;2023-05-23T05:42:24;92525.06;;;18.69;52.70
39613;BME280;25303;48.896;13.342;2023-05-23T05:45:07;92530.06;;;18.71;52.63
39613;BME280;25303;48.896;13.342;2023-05-23T05:47:54;92534.06;;;18.73;52.48
39613;BME280;25303;48.896;13.342;2023-05-23T05:50:38;92535.44;;;18.76;52.33
39613;BME280;25303;48.896;13.342;2023-05-23T05:53:24;92526.19;;;18.80;52.74
39613;BME280;25303;48.896;13.342;2023-05-23T05:56:08;92529.16;;;18.83;52.51
39613;BME280;25303;48.896;13.342;2023-05-23T05:58:52;92528.97;;;18.85;52.14
39613;BME280;25303;48.896;13.342;2023-05-23T06:01:36;92522.72;;;18.86;52.23
39613;BME280;25303;48.896;13.342;2023-05-23T06:04:19;92531.69;;;18.90;52.29
39613;BME280;25303;48.896;13.342;2023-05-23T06:07:03;92534.69;;;18.94;52.34
39613;BME280;25303;48.896;13.342;2023-05-23T06:09:48;92530.66;;;18.98;52.50
39613;BME280;25303;48.896;13.342;2023-05-23T06:12:31;92538.06;;;19.01;52.33
39613;BME280;25303;48.896;13.342;2023-05-23T06:15:14;92535.44;;;19.01;52.01
39613;BME280;25303;48.896;13.342;2023-05-23T06:17:57;92539.66;;;19.02;52.17
39613;BME280;25303;48.896;13.342;2023-05-23T06:20:40;92541.66;;;19.00;51.79
39613;BME280;25303;48.896;13.342;2023-05-23T06:23:28;92539.53;;;18.90;51.84
39613;BME280;25303;48.896;13.342;2023-05-23T06:26:12;92543.78;;;18.85;52.12
39613;BME280;25303;48.896;13.342;2023-05-23T06:28:55;92548.84;;;18.79;52.07
39613;BME280;25303;48.896;13.342;2023-05-23T06:31:38;92557.19;;;18.70;52.11
39613;BME280;25303;48.896;13.342;2023-05-23T06:34:21;92552.81;;;18.63;52.33
39613;BME280;25303;48.896;13.342;2023-05-23T06:37:04;92551.44;;;18.61;51.99
39613;BME280;25303;48.896;13.342;2023-05-23T06:39:48;92541.00;;;18.61;52.24
39613;BME280;25303;48.896;13.342;2023-05-23T06:42:33;92542.22;;;18.58;52.44
39613;BME280;25303;48.896;13.342;2023-05-23T06:45:45;92544.63;;;18.60;52.88
39613;BME280;25303;48.896;13.342;2023-05-23T06:48:28;92545.69;;;18.52;52.61
39613;BME280;25303;48.896;13.342;2023-05-23T06:51:12;92546.25;;;18.54;52.78
39613;BME280;25303;48.896;13.342;2023-05-23T06:53:56;92544.94;;;18.45;52.99
39613;BME280;25303;48.896;13.342;2023-05-23T06:56:39;92551.16;;;18.44;53.13
39613;BME280;25303;48.896;13.342;2023-05-23T06:59:24;92547.91;;;18.48;53.10
39613;BME280;25303;48.896;13.342;2023-05-23T07:02:07;92543.84;;;18.52;52.98
39613;BME280;25303;48.896;13.342;2023-05-23T07:04:51;92545.03;;;18.57;52.93
39613;BME280;25303;48.896;13.342;2023-05-23T07:07:54;92552.84;;;18.57;53.12
39613;BME280;25303;48.896;13.342;2023-05-23T07:10:38;92557.44;;;18.61;53.27
39613;BME280;25303;48.896;13.342;2023-05-23T07:13:43;92547.16;;;18.66;53.33
39613;BME280;25303;48.896;13.342;2023-05-23T07:16:35;92548.47;;;18.76;53.71
39613;BME280;25303;48.896;13.342;2023-05-23T07:19:20;92550.03;;;18.83;53.25
39613;BME280;25303;48.896;13.342;2023-05-23T07:22:05;92550.97;;;18.89;53.29
39613;BME280;25303;48.896;13.342;2023-05-23T07:24:51;92559.19;;;18.93;53.65
39613;BME280;25303;48.896;13.342;2023-05-23T07:27:42;92559.72;;;19.02;54.04
39613;BME280;25303;48.896;13.342;2023-05-23T07:30:25;92560.59;;;19.14;53.64
39613;BME280;25303;48.896;13.342;2023-05-23T07:33:09;92560.31;;;19.22;53.70
39613;BME280;25303;48.896;13.342;2023-05-23T07:35:52;92550.97;;;19.33;53.95
39613;BME280;25303;48.896;13.342;2023-05-23T07:38:35;92552.41;;;19.48;53.78
39613;BME280;25303;48.896;13.342;2023-05-23T07:41:18;92547.69;;;19.56;53.70
39613;BME280;25303;48.896;13.342;2023-05-23T07:44:01;92552.63;;;19.65;54.27
39613;BME280;25303;48.896;13.342;2023-05-23T07:46:44;92556.09;;;19.77;53.92
39613;BME280;25303;48.896;13.342;2023-05-23T07:49:30;92555.00;;;19.85;54.43
39613;BME280;25303;48.896;13.342;2023-05-23T07:52:13;92561.31;;;19.96;53.95
39613;BME280;25303;48.896;13.342;2023-05-23T07:54:56;92557.81;;;20.02;53.84
39613;BME280;25303;48.896;13.342;2023-05-23T07:57:41;92563.31;;;20.12;53.94
39613;BME280;25303;48.896;13.342;2023-05-23T08:00:24;92557.97;;;20.19;53.97
39613;BME280;25303;48.896;13.342;2023-05-23T08:03:15;92557.66;;;20.27;53.92
39613;BME280;25303;48.896;13.342;2023-05-23T08:06:12;92561.78;;;20.35;54.05
39613;BME280;25303;48.896;13.342;2023-05-23T08:08:56;92561.22;;;20.33;53.61
39613;BME280;25303;48.896;13.342;2023-05-23T08:11:39;92562.47;;;20.42;53.83
39613;BME280;25303;48.896;13.342;2023-05-23T08:14:22;92554.66;;;20.54;53.80
39613;BME280;25303;48.896;13.342;2023-05-23T08:17:32;92559.56;;;20.62;52.75
39613;BME280;25303;48.896;13.342;2023-05-23T08:20:16;92556.16;;;20.62;52.88
39613;BME280;25303;48.896;13.342;2023-05-23T08:23:02;92547.41;;;20.68;53.27
39613;BME280;25303;48.896;13.342;2023-05-23T08:25:45;92554.94;;;20.76;52.97
39613;BME280;25303;48.896;13.342;2023-05-23T08:28:28;92560.19;;;20.88;51.94
39613;BME280;25303;48.896;13.342;2023-05-23T08:31:11;92557.59;;;21.00;51.47
39613;BME280;25303;48.896;13.342;2023-05-23T08:33:54;92561.88;;;21.06;50.83
39613;BME280;25303;48.896;13.342;2023-05-23T08:36:37;92559.03;;;21.20;50.58
39613;BME280;25303;48.896;13.342;2023-05-23T08:39:24;92565.84;;;21.33;50.03
39613;BME280;25303;48.896;13.342;2023-05-23T08:42:18;92564.38;;;21.49;49.94
39613;BME280;25303;48.896;13.342;2023-05-23T08:45:01;92573.91;;;21.67;49.73
39613;BME280;25303;48.896;13.342;2023-05-23T08:47:46;92574.09;;;21.77;49.43
39613;BME280;25303;48.896;13.342;2023-05-23T08:50:31;92574.00;;;21.84;49.35
39613;BME280;25303;48.896;13.342;2023-05-23T08:53:15;92571.91;;;21.86;48.98
39613;BME280;25303;48.896;13.342;2023-05-23T08:56:07;92576.06;;;21.82;48.71
39613;BME280;25303;48.896;13.342;2023-05-23T08:58:57;92570.28;;;21.97;48.79
39613;BME280;25303;48.896;13.342;2023-05-23T09:01:41;92573.66;;;22.09;48.09
39613;BME280;25303;48.896;13.342;2023-05-23T09:04:28;92576.16;;;22.16;48.14
39613;BME280;25303;48.896;13.342;2023-05-23T09:07:18;92574.28;;;22.28;48.31
39613;BME280;25303;48.896;13.342;2023-05-23T09:10:04;92575.59;;;22.43;47.72
39613;BME280;25303;48.896;13.342;2023-05-23T09:12:50;92569.06;;;22.45;47.84
39613;BME280;25303;48.896;13.342;2023-05-23T09:15:33;92579.66;;;22.51;48.00
39613;BME280;25303;48.896;13.342;2023-05-23T09:18:18;92582.75;;;22.48;47.49
39613;BME280;25303;48.896;13.342;2023-05-23T09:21:01;92573.47;;;22.57;47.75
39613;BME280;25303;48.896;13.342;2023-05-23T09:23:47;92573.94;;;22.71;47.39
39613;BME280;25303;48.896;13.342;2023-05-23T09:26:31;92577.53;;;22.82;46.89
39613;BME280;25303;48.896;13.342;2023-05-23T09:29:19;92565.91;;;22.77;46.27
39613;BME280;25303;48.896;13.342;2023-05-23T09:32:09;92580.84;;;22.60;46.11
39613;BME280;25303;48.896;13.342;2023-05-23T09:34:55;92578.78;;;22.45;46.48
39613;BME280;25303;48.896;13.342;2023-05-23T09:37:42;92579.63;;;22.34;46.62
39613;BME280;25303;48.896;13.342;2023-05-23T09:40:30;92571.34;;;22.25;46.64
39613;BME280;25303;48.896;13.342;2023-05-23T09:43:17;92580.91;;;22.19;47.09
39613;BME280;25303;48.896;13.342;2023-05-23T09:46:08;92581.53;;;22.09;47.11
39613;BME280;25303;48.896;13.342;2023-05-23T09:48:54;92576.91;;;21.99;47.29
39613;BME280;25303;48.896;13.342;2023-05-23T09:51:38;92571.69;;;21.88;47.67
39613;BME280;25303;48.896;13.342;2023-05-23T09:54:21;92579.16;;;21.67;48.69
39613;BME280;25303;48.896;13.342;2023-05-23T09:57:08;92569.59;;;21.61;49.02
39613;BME280;25303;48.896;13.342;2023-05-23T09:59:52;92566.19;;;21.36;49.86
39613;BME280;25303;48.896;13.342;2023-05-23T10:05:35;92558.81;;;21.21;50.76
39613;BME280;25303;48.896;13.342;2023-05-23T10:08:24;92561.56;;;21.15;51.45
39613;BME280;25303;48.896;13.342;2023-05-23T10:14:34;92565.75;;;20.92;52.41
39613;BME280;25303;48.896;13.342;2023-05-23T10:17:25;92571.06;;;20.73;53.54
39613;BME280;25303;48.896;13.342;2023-05-23T10:20:15;92562.88;;;20.70;53.12
39613;BME280;25303;48.896;13.342;2023-05-23T10:23:00;92558.06;;;20.55;53.71
39613;BME280;25303;48.896;13.342;2023-05-23T10:25:47;92563.84;;;20.45;54.19
39613;BME280;25303;48.896;13.342;2023-05-23T10:28:31;92573.63;;;20.38;54.37
39613;BME280;25303;48.896;13.342;2023-05-23T10:31:14;92559.03;;;20.30;54.80
39613;BME280;25303;48.896;13.342;2023-05-23T10:34:06;92554.16;;;20.33;56.80
39613;BME280;25303;48.896;13.342;2023-05-23T10:36:58;92558.59;;;20.45;56.13
39613;BME280;25303;48.896;13.342;2023-05-23T10:39:56;92550.34;;;20.60;56.74
39613;BME280;25303;48.896;13.342;2023-05-23T10:42:50;92554.56;;;20.61;56.36
39613;BME280;25303;48.896;13.342;2023-05-23T10:45:39;92560.69;;;20.55;56.22
39613;BME280;25303;48.896;13.342;2023-05-23T10:48:32;92569.06;;;20.45;56.94
39613;BME280;25303;48.896;13.342;2023-05-23T10:51:16;92580.75;;;20.30;57.16
39613;BME280;25303;48.896;13.342;2023-05-23T10:54:00;92582.88;;;19.91;57.51
39613;BME280;25303;48.896;13.342;2023-05-23T10:56:45;92591.50;;;19.54;57.30
39613;BME280;25303;48.896;13.342;2023-05-23T10:59:28;92583.16;;;19.08;56.98
39613;BME280;25303;48.896;13.342;2023-05-23T11:02:12;92582.91;;;18.85;57.21
39613;BME280;25303;48.896;13.342;2023-05-23T11:05:17;92582.22;;;18.71;57.93
39613;BME280;25303;48.896;13.342;2023-05-23T11:08:08;92597.38;;;18.55;58.11
39613;BME280;25303;48.896;13.342;2023-05-23T11:10:54;92595.69;;;18.42;58.87
39613;BME280;25303;48.896;13.342;2023-05-23T11:13:54;92599.16;;;18.29;59.71
39613;BME280;25303;48.896;13.342;2023-05-23T11:16:40;92595.00;;;18.21;59.42
39613;BME280;25303;48.896;13.342;2023-05-23T11:19:25;92591.19;;;18.17;59.59
39613;BME280;25303;48.896;13.342;2023-05-23T11:22:09;92583.81;;;18.14;59.48
39613;BME280;25303;48.896;13.342;2023-05-23T11:24:53;92574.19;;;18.15;59.84
39613;BME280;25303;48.896;13.342;2023-05-23T11:27:38;92570.78;;;18.14;59.71
39613;BME280;25303;48.896;13.342;2023-05-23T11:30:22;92576.56;;;18.16;59.91
39613;BME280;25303;48.896;13.342;2023-05-23T11:33:06;92571.59;;;18.15;60.06
39613;BME280;25303;48.896;13.342;2023-05-23T11:35:52;92574.81;;;18.10;61.24
39613;BME280;25303;48.896;13.342;2023-05-23T11:38:36;92572.19;;;18.17;61.10
39613;BME280;25303;48.896;13.342;2023-05-23T11:41:19;92583.94;;;18.26;61.66
39613;BME280;25303;48.896;13.342;2023-05-23T11:44:11;92579.59;;;18.45;62.73
39613;BME280;25303;48.896;13.342;2023-05-23T11:46:59;92577.91;;;18.83;64.03
39613;BME280;25303;48.896;13.342;2023-05-23T11:49:43;92576.22;;;19.39;64.08
39613;BME280;25303;48.896;13.342;2023-05-23T11:52:31;92567.81;;;20.05;63.98
39613;BME280;25303;48.896;13.342;2023-05-23T11:55:14;92568.09;;;20.70;62.71
39613;BME280;25303;48.896;13.342;2023-05-23T11:57:57;92566.75;;;21.27;61.98
39613;BME280;25303;48.896;13.342;2023-05-23T12:00:43;92576.06;;;21.82;60.97
39613;BME280;25303;48.896;13.342;2023-05-23T12:03:26;92578.06;;;22.21;59.80
39613;BME280;25303;48.896;13.342;2023-05-23T12:06:10;92578.56;;;22.64;58.92
39613;BME280;25303;48.896;13.342;2023-05-23T12:08:54;92569.13;;;22.97;56.11
39613;BME280;25303;48.896;13.342;2023-05-23T12:11:39;92576.56;;;23.39;57.15
39613;BME280;25303;48.896;13.342;2023-05-23T12:14:22;92575.91;;;23.71;56.24
39613;BME280;25303;48.896;13.342;2023-05-23T12:17:12;92569.13;;;23.97;54.67
39613;BME280;25303;48.896;13.342;2023-05-23T12:19:55;92567.22;;;24.15;54.32
39613;BME280;25303;48.896;13.342;2023-05-23T12:22:38;92571.94;;;24.13;52.74
39613;BME280;25303;48.896;13.342;2023-05-23T12:25:23;92561.47;;;24.18;52.49
39613;BME280;25303;48.896;13.342;2023-05-23T12:28:06;92557.41;;;24.33;51.28
39613;BME280;25303;48.896;13.342;2023-05-23T12:30:49;92561.81;;;24.27;49.91
39613;BME280;25303;48.896;13.342;2023-05-23T12:33:37;92560.53;;;24.30;48.76
39613;BME280;25303;48.896;13.342;2023-05-23T12:36:21;92555.75;;;24.54;50.26
39613;BME280;25303;48.896;13.342;2023-05-23T12:39:05;92559.53;;;24.96;49.94
39613;BME280;25303;48.896;13.342;2023-05-23T12:41:48;92564.28;;;24.99;48.04
39613;BME280;25303;48.896;13.342;2023-05-23T12:44:32;92567.03;;;24.77;45.93
39613;BME280;25303;48.896;13.342;2023-05-23T12:47:14;92567.53;;;24.46;46.05
39613;BME280;25303;48.896;13.342;2023-05-23T12:49:59;92568.72;;;24.06;46.27
39613;BME280;25303;48.896;13.342;2023-05-23T12:52:42;92563.25;;;23.68;46.59
39613;BME280;25303;48.896;13.342;2023-05-23T12:55:25;92568.97;;;23.43;46.84
39613;BME280;25303;48.896;13.342;2023-05-23T12:58:08;92572.13;;;23.23;47.08
39613;BME280;25303;48.896;13.342;2023-05-23T13:00:52;92569.88;;;23.31;47.66
39613;BME280;25303;48.896;13.342;2023-05-23T13:03:35;92568.38;;;23.58;47.46
39613;BME280;25303;48.896;13.342;2023-05-23T13:06:19;92564.59;;;23.93;47.34
39613;BME280;25303;48.896;13.342;2023-05-23T13:09:02;92558.22;;;24.11;46.23
39613;BME280;25303;48.896;13.342;2023-05-23T13:11:47;92560.25;;;24.26;45.71
39613;BME280;25303;48.896;13.342;2023-05-23T13:14:30;92551.88;;;24.34;44.74
39613;BME280;25303;48.896;13.342;2023-05-23T13:17:13;92541.25;;;24.51;44.57
39613;BME280;25303;48.896;13.342;2023-05-23T13:19:56;92548.59;;;24.49;44.39
39613;BME280;25303;48.896;13.342;2023-05-23T13:22:40;92556.03;;;24.57;44.31
39613;BME280;25303;48.896;13.342;2023-05-23T13:25:24;92550.94;;;24.73;43.83
39613;BME280;25303;48.896;13.342;2023-05-23T13:28:07;92545.00;;;24.88;43.99
39613;BME280;25303;48.896;13.342;2023-05-23T13:30:50;92550.69;;;25.12;43.27
39613;BME280;25303;48.896;13.342;2023-05-23T13:33:34;92550.31;;;25.41;43.02
39613;BME280;25303;48.896;13.342;2023-05-23T13:36:17;92552.09;;;25.78;42.65
39613;BME280;25303;48.896;13.342;2023-05-23T13:39:01;92548.50;;;26.00;41.55
39613;BME280;25303;48.896;13.342;2023-05-23T13:41:47;92554.84;;;26.09;41.08
39613;BME280;25303;48.896;13.342;2023-05-23T13:44:30;92554.38;;;26.28;40.98
39613;BME280;25303;48.896;13.342;2023-05-23T13:47:14;92545.16;;;26.26;39.34
39613;BME280;25303;48.896;13.342;2023-05-23T13:49:58;92557.53;;;26.25;38.91
39613;BME280;25303;48.896;13.342;2023-05-23T13:52:41;92550.19;;;26.32;38.94
39613;BME280;25303;48.896;13.342;2023-05-23T13:55:30;92554.16;;;26.45;38.58
39613;BME280;25303;48.896;13.342;2023-05-23T13:58:13;92546.00;;;26.67;38.06
39613;BME280;25303;48.896;13.342;2023-05-23T14:00:56;92559.22;;;26.83;37.35
39613;BME280;25303;48.896;13.342;2023-05-23T14:03:39;92555.75;;;26.72;36.94
39613;BME280;25303;48.896;13.342;2023-05-23T14:06:23;92569.78;;;26.83;36.13
39613;BME280;25303;48.896;13.342;2023-05-23T14:09:06;92579.31;;;26.99;36.57
39613;BME280;25303;48.896;13.342;2023-05-23T14:11:50;92577.97;;;27.28;35.73
39613;BME280;25303;48.896;13.342;2023-05-23T14:14:34;92576.13;;;26.97;34.30
39613;BME280;25303;48.896;13.342;2023-05-23T14:17:17;92571.63;;;26.88;34.75
39613;BME280;25303;48.896;13.342;2023-05-23T14:20:00;92576.66;;;27.05;35.20
39613;BME280;25303;48.896;13.342;2023-05-23T14:22:43;92575.56;;;27.06;34.99
39613;BME280;25303;48.896;13.342;2023-05-23T14:25:27;92575.31;;;27.18;34.89
39613;BME280;25303;48.896;13.342;2023-05-23T14:28:12;92576.59;;;27.41;34.42
39613;BME280;25303;48.896;13.342;2023-05-23T14:30:55;92578.44;;;27.61;34.48
39613;BME280;25303;48.896;13.342;2023-05-23T14:33:40;92582.13;;;27.65;33.44